createdAt,value
2023-03-22T00:01:14.070Z,82.40
2023-03-22T00:03:41.066Z,82.63
2023-03-22T00:06:08.377Z,82.74
2023-03-22T00:08:35.686Z,82.65
2023-03-22T00:11:03.403Z,82.23
2023-03-22T00:13:31.509Z,81.65
2023-03-22T00:15:59.863Z,81.76
2023-03-22T00:18:26.788Z,81.75
2023-03-22T00:20:55.807Z,81.73
2023-03-22T00:23:23.887Z,81.89
2023-03-22T00:25:50.788Z,82.01
2023-03-22T00:28:18.222Z,82.38
2023-03-22T00:30:56.609Z,83.24
2023-03-22T00:33:27.868Z,84.27
2023-03-22T00:35:58.704Z,85.65
2023-03-22T00:38:41.214Z,85.86
2023-03-22T00:41:28.726Z,86.13
2023-03-22T00:43:55.523Z,86.86
2023-03-22T00:46:23.134Z,86.54
2023-03-22T00:48:49.999Z,86.23
2023-03-22T00:51:18.075Z,85.80
2023-03-22T00:53:44.898Z,85.86
2023-03-22T00:56:16.272Z,84.90
2023-03-22T00:58:48.038Z,85.07
2023-03-22T01:01:15.262Z,84.95
2023-03-22T01:03:43.434Z,84.58
2023-03-22T01:06:14.083Z,84.05
2023-03-22T01:08:41.014Z,83.48
2023-03-22T01:11:09.787Z,84.13
2023-03-22T01:13:42.006Z,83.29
2023-03-22T01:16:10.450Z,83.51
2023-03-22T01:18:37.675Z,84.01
2023-03-22T01:21:07.159Z,84.64
2023-03-22T01:23:34.405Z,84.69
2023-03-22T01:26:02.687Z,85.35
2023-03-22T01:28:30.367Z,85.31
2023-03-22T01:31:00.569Z,85.69
2023-03-22T01:33:27.425Z,85.71
2023-03-22T01:35:54.343Z,85.21
2023-03-22T01:38:21.720Z,85.20
2023-03-22T01:40:53.670Z,85.51
2023-03-22T01:43:21.122Z,85.74
2023-03-22T01:45:50.330Z,87.58
2023-03-22T01:48:26.814Z,87.90
2023-03-22T01:50:59.801Z,87.52
2023-03-22T01:53:28.162Z,87.85
2023-03-22T01:55:57.725Z,88.04
2023-03-22T01:58:29.960Z,88.01
2023-03-22T02:01:00.917Z,88.07
2023-03-22T02:04:15.761Z,88.65
2023-03-22T02:06:43.215Z,89.18
2023-03-22T02:09:22.151Z,88.45
2023-03-22T02:11:59.935Z,87.60
2023-03-22T02:15:09.933Z,87.70
2023-03-22T02:18:11.436Z,87.79
2023-03-22T02:20:51.061Z,87.54
2023-03-22T02:23:46.575Z,87.34
2023-03-22T02:26:24.308Z,86.57
2023-03-22T02:28:58.343Z,86.74
2023-03-22T02:31:49.514Z,86.52
2023-03-22T02:34:40.753Z,86.35
2023-03-22T02:37:22.318Z,85.41
2023-03-22T02:40:15.143Z,85.41
2023-03-22T02:43:08.785Z,85.34
2023-03-22T02:45:45.825Z,85.16
2023-03-22T02:48:34.417Z,84.99
2023-03-22T02:51:08.297Z,84.61
2023-03-22T02:53:47.076Z,85.45
2023-03-22T02:56:30.312Z,85.26
2023-03-22T02:59:02.577Z,84.65
2023-03-22T03:01:37.242Z,84.72
2023-03-22T03:04:09.562Z,85.32
2023-03-22T03:06:45.997Z,85.06
2023-03-22T03:09:18.850Z,84.61
2023-03-22T03:11:47.928Z,84.17
2023-03-22T03:14:27.137Z,84.53
2023-03-22T03:17:22.340Z,84.65
2023-03-22T03:20:13.601Z,84.81
2023-03-22T03:23:01.340Z,84.75
2023-03-22T03:25:46.527Z,85.05
2023-03-22T03:28:30.348Z,84.57
2023-03-22T03:31:07.928Z,84.17
2023-03-22T03:33:40.174Z,83.70
2023-03-22T03:36:11.350Z,85.84
2023-03-22T03:38:44.593Z,87.37
2023-03-22T03:41:20.316Z,87.18
2023-03-22T03:43:51.423Z,87.84
2023-03-22T03:46:18.616Z,87.40
2023-03-22T03:48:48.544Z,87.10
2023-03-22T03:51:15.402Z,86.52
2023-03-22T03:53:49.217Z,86.70
2023-03-22T03:56:17.330Z,86.32
2023-03-22T03:58:46.555Z,85.93
2023-03-22T04:01:13.646Z,85.61
2023-03-22T04:03:55.669Z,85.88
2023-03-22T04:06:45.901Z,85.94
2023-03-22T04:09:17.601Z,85.41
2023-03-22T04:11:49.009Z,85.78
2023-03-22T04:14:16.450Z,85.82
2023-03-22T04:16:46.938Z,85.84
2023-03-22T04:19:19.195Z,85.77
2023-03-22T04:21:46.367Z,85.40
2023-03-22T04:24:14.165Z,84.95
2023-03-22T04:26:43.410Z,84.24
2023-03-22T04:29:18.992Z,84.28
2023-03-22T04:31:50.348Z,84.64
2023-03-22T04:34:21.543Z,84.91
2023-03-22T04:36:52.016Z,84.13
2023-03-22T04:39:30.970Z,84.41
2023-03-22T04:42:19.158Z,86.04
2023-03-22T04:44:46.986Z,86.56
2023-03-22T04:47:13.757Z,86.32
2023-03-22T04:49:40.983Z,87.82
2023-03-22T04:52:08.306Z,87.26
2023-03-22T04:54:37.523Z,88.29
2023-03-22T04:57:04.925Z,88.07
2023-03-22T04:59:37.828Z,87.68
2023-03-22T05:02:05.357Z,88.11
2023-03-22T05:04:39.113Z,88.05
2023-03-22T05:07:14.287Z,86.59
2023-03-22T05:09:46.809Z,86.85
2023-03-22T05:12:14.674Z,87.55
2023-03-22T05:14:50.533Z,87.72
2023-03-22T05:17:22.862Z,87.28
2023-03-22T05:19:52.364Z,86.73
2023-03-22T05:22:22.485Z,86.91
2023-03-22T05:24:51.347Z,86.40
2023-03-22T05:27:31.364Z,86.14
2023-03-22T05:30:06.511Z,85.73
2023-03-22T05:32:44.114Z,85.30
2023-03-22T05:35:12.109Z,85.14
2023-03-22T05:37:43.437Z,84.88
2023-03-22T05:40:13.533Z,84.88
2023-03-22T05:42:43.558Z,85.51
2023-03-22T05:45:18.776Z,85.01
2023-03-22T05:47:50.691Z,85.03
2023-03-22T05:50:23.017Z,85.65
2023-03-22T05:52:50.607Z,85.42
2023-03-22T05:55:32.292Z,85.95
2023-03-22T05:58:02.327Z,85.24
2023-03-22T06:00:36.057Z,85.28
2023-03-22T06:03:23.472Z,86.49
2023-03-22T06:05:58.540Z,86.40
2023-03-22T06:08:41.110Z,86.50
2023-03-22T06:11:08.085Z,86.82
2023-03-22T06:13:37.399Z,87.07
2023-03-22T06:16:06.140Z,86.96
2023-03-22T06:18:33.430Z,86.82
2023-03-22T06:21:08.514Z,86.22
2023-03-22T06:23:36.188Z,86.53
2023-03-22T06:26:03.167Z,86.62
2023-03-22T06:28:31.283Z,86.50
2023-03-22T06:31:05.442Z,86.77
2023-03-22T06:33:58.641Z,87.04
2023-03-22T06:36:31.705Z,87.24
2023-03-22T06:39:08.816Z,87.15
2023-03-22T06:41:36.038Z,86.96
2023-03-22T06:44:03.026Z,87.39
2023-03-22T06:46:56.207Z,87.57
2023-03-22T06:49:42.834Z,88.08
2023-03-22T06:52:15.209Z,88.05
2023-03-22T06:54:42.086Z,87.73
2023-03-22T06:57:10.184Z,87.81
2023-03-22T06:59:36.985Z,87.55
2023-03-22T07:02:04.440Z,87.74
2023-03-22T07:04:33.199Z,87.85
2023-03-22T07:07:00.051Z,87.64
2023-03-22T07:09:27.695Z,87.81
2023-03-22T07:11:57.843Z,87.75
2023-03-22T07:14:25.324Z,88.15
2023-03-22T07:17:06.634Z,88.25
2023-03-22T07:19:34.225Z,88.47
2023-03-22T07:22:06.502Z,88.71
2023-03-22T07:24:33.871Z,88.03
2023-03-22T07:27:02.217Z,87.24
2023-03-22T07:29:29.598Z,87.01
2023-03-22T07:31:56.837Z,86.97
2023-03-22T07:34:32.687Z,86.69
2023-03-22T07:37:12.429Z,86.77
2023-03-22T07:39:41.080Z,86.24
2023-03-22T07:42:08.032Z,85.99
2023-03-22T07:45:13.339Z,84.99
2023-03-22T07:47:41.535Z,84.20
2023-03-22T07:50:17.756Z,82.90
2023-03-22T07:52:47.729Z,82.12
2023-03-22T07:55:14.975Z,81.52
2023-03-22T07:57:42.312Z,81.83
2023-03-22T08:00:10.537Z,81.87
2023-03-22T08:02:46.553Z,81.64
2023-03-22T08:05:28.643Z,81.57
2023-03-22T08:08:00.682Z,82.15
2023-03-22T08:10:27.844Z,83.01
2023-03-22T08:12:55.180Z,83.34
2023-03-22T08:15:25.680Z,84.26
2023-03-22T08:17:53.450Z,84.26
2023-03-22T08:20:32.839Z,84.22
2023-03-22T08:23:04.174Z,84.12
2023-03-22T08:25:43.360Z,85.03
2023-03-22T08:28:12.000Z,84.07
2023-03-22T08:30:39.787Z,83.85
2023-03-22T08:33:06.773Z,83.91
2023-03-22T08:35:34.659Z,84.72
2023-03-22T08:38:01.524Z,84.90
2023-03-22T08:40:36.883Z,84.84
2023-03-22T08:43:04.207Z,85.06
2023-03-22T08:45:31.072Z,85.22
2023-03-22T08:48:06.108Z,85.12
2023-03-22T08:50:46.575Z,83.79
2023-03-22T08:53:21.784Z,84.00
2023-03-22T08:55:58.127Z,84.11
2023-03-22T08:58:35.942Z,83.54
2023-03-22T09:01:21.149Z,83.27
2023-03-22T09:03:52.755Z,84.70
2023-03-22T09:06:20.004Z,84.51
2023-03-22T09:08:47.376Z,83.67
2023-03-22T09:11:17.959Z,82.59
2023-03-22T09:13:51.259Z,79.14
2023-03-22T09:16:19.145Z,78.30
2023-03-22T09:18:47.244Z,80.40
2023-03-22T09:21:21.885Z,79.95
2023-03-22T09:24:09.370Z,80.71
2023-03-22T09:26:43.567Z,81.26
2023-03-22T09:29:10.926Z,83.00
2023-03-22T09:31:39.931Z,81.95
2023-03-22T09:34:16.119Z,80.56
2023-03-22T09:36:42.966Z,81.33
2023-03-22T09:39:13.336Z,81.40
2023-03-22T09:41:43.450Z,81.57
2023-03-22T09:44:26.173Z,80.31
2023-03-22T09:46:55.578Z,79.42
2023-03-22T09:49:32.138Z,78.80
2023-03-22T09:52:00.029Z,78.82
2023-03-22T09:54:35.902Z,77.89
2023-03-22T09:57:11.589Z,77.93
2023-03-22T09:59:48.287Z,77.60
2023-03-22T10:02:45.964Z,76.13
2023-03-22T10:05:22.196Z,76.62
2023-03-22T10:08:18.068Z,76.18
2023-03-22T10:10:45.569Z,75.84
2023-03-22T10:13:19.985Z,76.33
2023-03-22T10:16:00.041Z,75.57
2023-03-22T10:18:33.717Z,76.52
2023-03-22T10:21:11.021Z,76.25
2023-03-22T10:23:46.881Z,76.17
2023-03-22T10:26:20.089Z,75.51
2023-03-22T10:28:56.064Z,76.87
2023-03-22T10:31:24.204Z,75.71
2023-03-22T10:34:05.808Z,75.41
2023-03-22T10:36:36.665Z,76.56
2023-03-22T10:39:11.462Z,74.79
2023-03-22T10:41:39.507Z,75.26
2023-03-22T10:44:07.372Z,75.59
2023-03-22T10:46:39.363Z,75.20
2023-03-22T10:49:07.809Z,73.94
2023-03-22T10:51:43.691Z,75.15
2023-03-22T10:54:17.352Z,75.45
2023-03-22T10:56:45.095Z,73.47
2023-03-22T10:59:49.267Z,73.74
2023-03-22T11:02:27.690Z,73.07
2023-03-22T11:05:00.615Z,73.65
2023-03-22T11:07:36.665Z,74.78
2023-03-22T11:10:09.497Z,74.05
2023-03-22T11:12:57.316Z,72.03
2023-03-22T11:15:28.064Z,71.64
2023-03-22T11:18:00.500Z,72.05
2023-03-22T11:20:29.945Z,72.21
2023-03-22T11:23:02.781Z,72.03
2023-03-22T11:25:32.574Z,71.76
2023-03-22T11:28:05.494Z,71.00
2023-03-22T11:30:36.301Z,70.74
2023-03-22T11:33:09.161Z,72.01
2023-03-22T11:35:38.816Z,71.22
2023-03-22T11:38:05.727Z,72.25
2023-03-22T11:40:36.488Z,71.77
2023-03-22T11:43:24.301Z,71.95
2023-03-22T11:45:56.468Z,72.35
2023-03-22T11:48:27.399Z,70.69
2023-03-22T11:50:59.415Z,71.75
2023-03-22T11:53:28.207Z,72.72
2023-03-22T11:55:57.685Z,71.82
2023-03-22T11:58:28.283Z,70.32
2023-03-22T12:00:59.563Z,71.49
2023-03-22T12:03:36.736Z,71.00
2023-03-22T12:06:15.821Z,71.96
2023-03-22T12:08:42.883Z,72.88
2023-03-22T12:11:19.828Z,71.41
2023-03-22T12:14:29.648Z,71.86
2023-03-22T12:17:02.553Z,71.29
2023-03-22T12:20:12.345Z,71.71
2023-03-22T12:22:43.499Z,69.85
2023-03-22T12:25:17.535Z,71.70
2023-03-22T12:27:48.542Z,71.70
2023-03-22T12:30:22.981Z,71.19
2023-03-22T12:32:58.748Z,71.45
2023-03-22T12:35:30.195Z,70.05
2023-03-22T12:37:59.603Z,70.90
2023-03-22T12:40:32.239Z,70.73
2023-03-22T12:43:22.625Z,71.10
2023-03-22T12:45:54.932Z,70.34
2023-03-22T12:48:39.747Z,72.29
2023-03-22T12:51:09.209Z,72.60
2023-03-22T12:53:42.593Z,72.23
2023-03-22T12:56:12.939Z,71.38
2023-03-22T12:58:40.629Z,70.89
2023-03-22T13:01:29.099Z,72.12
2023-03-22T13:03:57.878Z,71.96
2023-03-22T13:06:44.210Z,69.55
2023-03-22T13:09:16.992Z,69.99
2023-03-22T13:11:49.799Z,70.76
2023-03-22T13:14:48.958Z,71.60
2023-03-22T13:17:38.229Z,70.58
2023-03-22T13:20:08.113Z,72.09
2023-03-22T13:22:38.039Z,71.09
2023-03-22T13:25:14.501Z,71.72
2023-03-22T13:28:03.332Z,70.46
2023-03-22T13:30:34.885Z,71.77
2023-03-22T13:33:10.557Z,70.78
2023-03-22T13:36:01.400Z,69.87
2023-03-22T13:38:37.174Z,71.25
2023-03-22T13:41:28.141Z,72.17
2023-03-22T13:44:00.528Z,71.06
2023-03-22T13:46:29.296Z,70.20
2023-03-22T13:49:01.889Z,72.28
2023-03-22T13:51:32.031Z,71.47
2023-03-22T13:54:08.670Z,72.43
2023-03-22T13:56:56.304Z,72.20
2023-03-22T13:59:25.579Z,72.03
2023-03-22T14:01:52.434Z,72.74
2023-03-22T14:04:50.740Z,71.77
2023-03-22T14:07:23.339Z,71.92
2023-03-22T14:09:54.332Z,72.19
2023-03-22T14:12:45.252Z,71.35
2023-03-22T14:15:17.421Z,72.80
2023-03-22T14:17:50.596Z,72.31
2023-03-22T14:20:21.608Z,71.53
